Angel Albino Corzo International Airport
MMTG : now visible

Aeroporto :











RITROVATECI SU...

 
LOGIN :

Iscrizione | Disclaimer

   EN    FR    IT 

 









Sommario :    VFR   VFR Marginale   IFR   IFR Intensivo   IFR Molto Intensivo
Visibilità : 
Base nubi : 
>= 8 km
>= 3000ft
5 / 8 km
1000 / 3000 ft
1500m / 5 km
500 / 1000 ft
800 / 1500m
200 / 500 ft
< 800m
< 200 ft
Simboli :   Temporali  Nebbia  Neve Forte  Precipitazioni Forti  Vento > 20 kt






- Altitudine del aeroporto : 1499 ft


MMTG - Angel Albino Corzo International

ULTIMO METAR :
  • 202348Z 30010KT 7SM SCT070 25/18 A2994 RMK SLP114 51009 951 8/050 HZY

METARs OBSOLETI :
  • 202248Z 00000KT 7SM SCT070 29/17 A2991 RMK 8/050 HZY ISOLD SC
  • 202141Z 00000KT 7SM SKC 30/17 A2991 RMK HZY

TAF TAF MMTG
Valido dal 20 a 18 ore il 21 a 18 ore UTC


201639Z 2018/2118 12005KT 5SM HZ SCT030 SCT300
FM202100 32012KT 6SM HZ SCT030 BKN300
BECMG 2101/2102 32005KT
FM210600 00000KT P6SM SCT300
FM211000 00000KT 5SM HZ SCT015
TEMPO 2111/2115 3SM BR HZ BKN015



MetMap, La meteo Aeronautica in un colpo d'occhio ! - Copyright ORBIFLY Dicembre 2007 - Disclaimer

ORBIFLY MET'MAP TEAM :

Programmazione e sviluppo : Alexandra Zaïnal
Concezione e sviluppo : Baudouin d'Aumeries
Co-Programmazione e sviluppo : Marc-Olivier Méhu
Supporto tecnico e logistico : Manuel Goepfert
Aiuto per la traduzione : Arnaldo La Scala

Contatto : metmap@orbifly.com




FONTI E CREDITI :

   NOAA       Earth
Advisory